Terminal Aerodrome Forecast
Issued by NWS Austin/San Antonio, TX

Home | Current Version | Previous Version | Text Only | Print | Product List | Glossary On
Versions: 1 2 3 4 5 6 7 8 9 10 11 12 13 14 15 16 17 18 19 20
000
FTUS44 KEWX 161100
TAFDRT
TAF
KDRT 161122Z 1612/1712 00000KT P6SM BKN040
     FM161600 10008KT P6SM BKN040 PROB30 1700/1704 VRB20KT 5SM TSRA
      OVC030CB=

USA.gov is the U.S. government's official web portal to all federal, state and local government web resources and services.